createdAt,value
2018-05-15T00:00:43.744Z,7.27
2018-05-15T00:02:49.285Z,7.90
2018-05-15T00:04:54.866Z,7.50
2018-05-15T00:07:01.290Z,6.97
2018-05-15T00:09:07.585Z,8.17
2018-05-15T00:11:24.988Z,7.90
2018-05-15T00:13:36.276Z,8.30
2018-05-15T00:15:41.818Z,15.80
2018-05-15T00:17:47.863Z,7.73
2018-05-15T00:19:53.756Z,7.67
2018-05-15T00:21:58.821Z,7.77
2018-05-15T00:24:05.639Z,8.20
2018-05-15T00:26:13.767Z,11.40
2018-05-15T00:28:22.013Z,6.83
2018-05-15T00:30:28.598Z,8.13
2018-05-15T00:32:34.869Z,8.80
2018-05-15T00:34:41.022Z,15.73
2018-05-15T00:36:46.541Z,7.93
2018-05-15T00:38:52.011Z,8.80
2018-05-15T00:40:57.757Z,8.00
2018-05-15T00:43:03.710Z,7.73
2018-05-15T00:45:11.417Z,8.30
2018-05-15T00:47:19.539Z,7.77
2018-05-15T00:49:25.332Z,8.50
2018-05-15T00:51:32.987Z,6.97
2018-05-15T00:53:38.301Z,9.73
2018-05-15T00:55:47.096Z,8.57
2018-05-15T00:57:52.772Z,8.63
2018-05-15T00:59:58.606Z,10.70
2018-05-15T01:02:04.117Z,7.80
2018-05-15T01:04:12.574Z,8.10
2018-05-15T01:06:19.662Z,8.53
2018-05-15T01:08:27.687Z,9.40
2018-05-15T01:10:33.320Z,8.57
2018-05-15T01:12:38.764Z,8.60
2018-05-15T01:14:44.757Z,9.07
2018-05-15T01:16:49.689Z,9.60
2018-05-15T01:18:55.674Z,11.37
2018-05-15T01:21:01.626Z,8.67
2018-05-15T01:23:07.975Z,8.87
2018-05-15T01:25:17.380Z,9.83
2018-05-15T01:27:25.396Z,9.30
2018-05-15T01:29:32.399Z,8.97
2018-05-15T01:31:38.785Z,8.87
2018-05-15T01:33:44.128Z,8.93
2018-05-15T01:35:50.878Z,9.60
2018-05-15T01:37:56.272Z,10.00
2018-05-15T01:40:01.390Z,9.13
2018-05-15T01:42:08.403Z,8.27
2018-05-15T01:44:16.904Z,8.20
2018-05-15T01:46:24.386Z,8.93
2018-05-15T01:48:30.249Z,9.53
2018-05-15T01:50:35.887Z,8.90
2018-05-15T01:52:41.370Z,9.73
2018-05-15T01:54:47.434Z,9.07
2018-05-15T01:56:52.863Z,8.90
2018-05-15T01:58:58.267Z,8.07
2018-05-15T02:01:04.552Z,9.57
2018-05-15T02:03:12.768Z,9.80
2018-05-15T02:05:19.177Z,8.53
2018-05-15T02:07:25.247Z,9.40
2018-05-15T02:09:31.870Z,9.17
2018-05-15T02:11:37.412Z,14.80
2018-05-15T02:13:42.938Z,8.77
2018-05-15T02:15:48.656Z,10.13
2018-05-15T02:17:54.378Z,8.77
2018-05-15T02:20:00.265Z,9.77
2018-05-15T02:22:06.494Z,10.20
2018-05-15T02:24:15.336Z,14.17
2018-05-15T02:26:21.918Z,8.80
2018-05-15T02:28:31.489Z,9.07
2018-05-15T02:30:37.257Z,9.07
2018-05-15T02:32:43.198Z,8.87
2018-05-15T02:34:49.265Z,9.40
2018-05-15T02:36:54.797Z,11.83
2018-05-15T02:39:00.647Z,11.63
2018-05-15T02:41:07.197Z,11.03
2018-05-15T02:43:15.948Z,9.93
2018-05-15T02:45:22.960Z,11.97
2018-05-15T02:47:28.915Z,9.50
2018-05-15T02:49:34.546Z,9.23
2018-05-15T02:51:40.029Z,10.00
2018-05-15T02:53:45.742Z,9.30
2018-05-15T02:55:51.608Z,9.30
2018-05-15T02:57:57.976Z,12.57
2018-05-15T03:00:03.471Z,9.60
2018-05-15T03:02:11.725Z,10.37
2018-05-15T03:04:19.399Z,9.50
2018-05-15T03:06:26.323Z,9.97
2018-05-15T03:08:32.670Z,9.83
2018-05-15T03:10:38.726Z,10.23
2018-05-15T03:12:44.302Z,11.10
2018-05-15T03:14:49.829Z,8.80
2018-05-15T03:16:55.327Z,10.37
2018-05-15T03:19:01.351Z,9.07
2018-05-15T03:21:08.341Z,10.47
2018-05-15T03:23:16.195Z,9.07
2018-05-15T03:25:22.272Z,10.47
2018-05-15T03:27:28.666Z,9.67
2018-05-15T03:29:34.078Z,9.60
2018-05-15T03:31:39.679Z,10.47
2018-05-15T03:33:45.555Z,9.60
2018-05-15T03:35:51.889Z,9.00
2018-05-15T03:37:57.590Z,10.87
2018-05-15T03:40:03.014Z,9.80
2018-05-15T03:42:10.658Z,9.40
2018-05-15T03:44:17.909Z,9.70
2018-05-15T03:46:24.763Z,10.00
2018-05-15T03:48:31.245Z,13.83
2018-05-15T03:50:37.032Z,9.40
2018-05-15T03:52:42.689Z,9.90
2018-05-15T03:54:48.993Z,10.27
2018-05-15T03:56:54.717Z,9.53
2018-05-15T03:59:00.205Z,10.30
2018-05-15T04:01:17.291Z,9.80
2018-05-15T04:05:40.943Z,9.80
2018-05-15T04:07:57.568Z,9.90
2018-05-15T04:10:03.312Z,9.97
2018-05-15T04:12:12.435Z,10.60
2018-05-15T04:14:19.735Z,14.73
2018-05-15T04:16:27.130Z,10.00
2018-05-15T04:18:33.283Z,13.50
2018-05-15T04:20:40.187Z,10.10
2018-05-15T04:22:47.192Z,10.33
2018-05-15T04:24:54.988Z,9.50
2018-05-15T04:27:01.692Z,10.70
2018-05-15T04:29:09.534Z,10.63
2018-05-15T04:31:19.536Z,10.57
2018-05-15T04:33:29.146Z,52.23
2018-05-15T04:35:36.364Z,39.33
2018-05-15T04:37:44.462Z,14.80
2018-05-15T04:39:51.256Z,13.27
2018-05-15T04:41:58.393Z,12.17
2018-05-15T04:44:05.120Z,33.20
2018-05-15T04:46:14.907Z,80.57
2018-05-15T04:48:23.860Z,166.53
2018-05-15T04:50:30.802Z,35.87
2018-05-15T04:52:38.656Z,14.00
2018-05-15T04:54:45.446Z,94.80
2018-05-15T04:56:52.635Z,226.13
2018-05-15T04:58:59.743Z,257.93
2018-05-15T05:01:08.648Z,174.90
2018-05-15T05:03:18.676Z,213.27
2018-05-15T05:05:26.494Z,393.13
2018-05-15T05:07:35.230Z,382.03
2018-05-15T05:09:41.696Z,494.43
2018-05-15T05:11:49.179Z,420.97
2018-05-15T05:13:56.401Z,557.43
2018-05-15T05:16:03.616Z,482.67
2018-05-15T05:18:12.654Z,386.97
2018-05-15T05:20:23.845Z,344.93
2018-05-15T05:22:30.706Z,169.00
2018-05-15T05:24:37.169Z,322.27
2018-05-15T05:26:43.999Z,334.70
2018-05-15T05:28:50.583Z,107.50
2018-05-15T05:30:57.220Z,44.47
2018-05-15T05:33:04.680Z,20.73
2018-05-15T05:35:14.247Z,18.00
2018-05-15T05:37:23.400Z,15.80
2018-05-15T05:39:31.312Z,15.33
2018-05-15T05:41:38.456Z,12.73
2018-05-15T05:43:45.357Z,11.33
2018-05-15T05:45:51.571Z,177.67
2018-05-15T05:47:58.902Z,414.73
2018-05-15T05:50:07.211Z,299.43
2018-05-15T05:52:17.286Z,465.40
2018-05-15T05:54:25.241Z,436.77
2018-05-15T05:56:32.547Z,903.03
2018-05-15T05:58:40.317Z,714.10
2018-05-15T06:00:48.014Z,523.23
2018-05-15T06:02:54.564Z,130.30
2018-05-15T06:05:01.200Z,31.37
2018-05-15T06:07:10.265Z,21.53
2018-05-15T06:09:19.379Z,18.13
2018-05-15T06:11:26.098Z,17.80
2018-05-15T06:13:33.898Z,15.20
2018-05-15T06:15:42.570Z,15.23
2018-05-15T06:17:50.407Z,11.73
2018-05-15T06:19:57.777Z,26.53
2018-05-15T06:22:05.340Z,137.07
2018-05-15T06:24:15.885Z,16.70
2018-05-15T06:26:27.990Z,18.40
2018-05-15T06:28:37.116Z,12.70
2018-05-15T06:30:45.034Z,16.40
2018-05-15T06:32:51.987Z,17.10
2018-05-15T06:34:58.953Z,12.10
2018-05-15T06:37:06.489Z,15.50
2018-05-15T06:39:17.338Z,13.40
2018-05-15T06:41:27.067Z,11.57
2018-05-15T06:43:34.380Z,14.47
2018-05-15T06:45:41.748Z,13.77
2018-05-15T06:47:51.585Z,15.73
2018-05-15T06:49:57.975Z,12.60
2018-05-15T06:52:04.292Z,16.70
2018-05-15T06:54:14.287Z,106.20
2018-05-15T06:56:22.262Z,861.77
2018-05-15T06:58:29.317Z,1125.13
2018-05-15T07:00:36.146Z,687.27
2018-05-15T07:02:43.123Z,653.80
2018-05-15T07:04:50.068Z,663.73
2018-05-15T07:06:57.085Z,912.43
2018-05-15T07:09:03.792Z,626.93
2018-05-15T07:11:14.301Z,1036.60
2018-05-15T07:13:25.190Z,620.40
2018-05-15T07:15:31.967Z,693.80
2018-05-15T07:17:38.866Z,178.90
2018-05-15T07:19:45.448Z,32.00
2018-05-15T07:21:52.787Z,20.30
2018-05-15T07:24:00.672Z,40.07
2018-05-15T07:26:09.208Z,139.93
2018-05-15T07:28:19.853Z,32.00
2018-05-15T07:30:28.809Z,69.03
2018-05-15T07:32:36.508Z,446.17
2018-05-15T07:34:43.918Z,254.37
2018-05-15T07:36:52.159Z,48.83
2018-05-15T07:38:59.898Z,18.93
2018-05-15T07:41:08.830Z,25.10
2018-05-15T07:43:18.133Z,14.57
2018-05-15T07:45:26.973Z,110.60
2018-05-15T07:47:33.256Z,699.57
2018-05-15T07:49:38.282Z,231.03
2018-05-15T07:51:43.721Z,37.73
2018-05-15T07:53:49.082Z,31.83
2018-05-15T07:55:54.096Z,21.97
2018-05-15T07:57:59.098Z,14.77
2018-05-15T08:00:04.455Z,13.67
2018-05-15T08:02:11.572Z,14.10
2018-05-15T08:04:20.184Z,12.60
2018-05-15T08:06:27.456Z,13.57
2018-05-15T08:08:33.051Z,16.80
2018-05-15T08:10:39.806Z,14.00
2018-05-15T08:12:46.687Z,12.73
2018-05-15T08:14:52.527Z,14.57
2018-05-15T08:16:58.693Z,15.43
2018-05-15T08:19:04.488Z,18.33
2018-05-15T08:21:12.616Z,11.77
2018-05-15T08:23:19.616Z,12.10
2018-05-15T08:25:26.138Z,12.13
2018-05-15T08:27:31.550Z,11.83
2018-05-15T08:29:36.604Z,13.87
2018-05-15T08:31:41.950Z,10.57
2018-05-15T08:33:47.070Z,11.73
2018-05-15T08:35:52.481Z,49.30
2018-05-15T08:37:58.285Z,715.73
2018-05-15T08:40:03.522Z,92.67
2018-05-15T08:42:11.303Z,23.50
2018-05-15T08:44:18.028Z,13.03
2018-05-15T08:46:23.761Z,16.50
2018-05-15T08:48:28.933Z,11.50
2018-05-15T08:50:34.335Z,13.93
2018-05-15T08:52:39.372Z,14.00
2018-05-15T08:54:44.922Z,10.23
2018-05-15T08:56:50.381Z,10.67
2018-05-15T08:58:55.917Z,10.27
2018-05-15T09:01:01.033Z,10.77
2018-05-15T09:03:06.696Z,12.33
2018-05-15T09:05:15.208Z,9.37
2018-05-15T09:07:22.497Z,9.73
2018-05-15T09:09:28.014Z,10.93
2018-05-15T09:11:33.302Z,670.57
2018-05-15T09:13:38.273Z,415.77
2018-05-15T09:15:43.378Z,678.27
2018-05-15T09:17:48.680Z,460.47
2018-05-15T09:19:53.693Z,50.83
2018-05-15T09:21:58.613Z,19.90
2018-05-15T09:24:03.851Z,354.87
2018-05-15T09:26:10.548Z,419.23
2018-05-15T09:28:17.513Z,834.73
2018-05-15T09:30:23.343Z,646.67
2018-05-15T09:32:28.764Z,793.93
2018-05-15T09:34:33.733Z,903.00
2018-05-15T09:36:39.151Z,729.23
2018-05-15T09:38:44.383Z,568.90
2018-05-15T09:40:49.679Z,111.27
2018-05-15T09:42:55.014Z,24.63
2018-05-15T09:45:00.411Z,14.80
2018-05-15T09:47:05.378Z,539.63
2018-05-15T09:49:14.124Z,524.07
2018-05-15T09:51:20.220Z,58.17
2018-05-15T09:53:27.038Z,14.73
2018-05-15T09:55:33.262Z,486.50
2018-05-15T09:57:38.856Z,175.37
2018-05-15T09:59:43.782Z,54.17
2018-05-15T10:01:49.119Z,16.47
2018-05-15T10:03:54.159Z,478.27
2018-05-15T10:05:59.179Z,532.03
2018-05-15T10:08:04.668Z,140.80
2018-05-15T10:10:12.923Z,21.20
2018-05-15T10:12:20.040Z,17.03
2018-05-15T10:14:26.276Z,22.57
2018-05-15T10:16:31.519Z,10.47
2018-05-15T10:18:36.751Z,11.13
2018-05-15T10:20:42.176Z,17.23
2018-05-15T10:22:47.832Z,13.33
2018-05-15T10:24:53.325Z,10.70
2018-05-15T10:26:58.812Z,12.07
2018-05-15T10:29:04.148Z,11.70
2018-05-15T10:31:12.189Z,10.43
2018-05-15T10:33:20.119Z,10.83
2018-05-15T10:35:25.377Z,9.03
2018-05-15T10:37:30.821Z,12.90
2018-05-15T10:39:36.192Z,11.23
2018-05-15T10:41:41.193Z,10.43
2018-05-15T10:43:46.274Z,10.60
2018-05-15T10:45:51.610Z,10.40
2018-05-15T10:47:57.231Z,12.83
2018-05-15T10:50:02.253Z,10.57
2018-05-15T10:52:08.855Z,23.97
2018-05-15T10:54:16.484Z,698.10
2018-05-15T10:56:22.412Z,627.77
2018-05-15T10:58:28.163Z,257.87
2018-05-15T11:00:33.618Z,19.83
2018-05-15T11:02:38.665Z,126.27
2018-05-15T11:04:44.336Z,602.53
2018-05-15T11:06:49.622Z,171.13
2018-05-15T11:08:54.719Z,19.60
2018-05-15T11:11:02.015Z,11.73
2018-05-15T11:13:09.925Z,14.30
2018-05-15T11:15:17.212Z,215.20
2018-05-15T11:17:25.429Z,452.03
2018-05-15T11:21:51.029Z,703.90
2018-05-15T11:24:24.283Z,569.20
2018-05-15T11:26:29.350Z,588.63
2018-05-15T11:28:34.438Z,48.47
2018-05-15T11:30:40.464Z,19.73
2018-05-15T11:32:46.015Z,12.67
2018-05-15T11:34:51.206Z,150.30
2018-05-15T11:36:57.020Z,256.10
2018-05-15T11:39:02.083Z,1121.57
2018-05-15T11:41:08.348Z,618.50
2018-05-15T11:43:14.520Z,239.80
2018-05-15T11:45:20.877Z,26.47
2018-05-15T11:47:26.288Z,17.60
2018-05-15T11:49:33.098Z,18.93
2018-05-15T11:51:38.742Z,13.00
2018-05-15T11:53:44.920Z,12.03
2018-05-15T11:55:51.377Z,11.50
2018-05-15T11:57:58.470Z,12.23
2018-05-15T12:00:04.161Z,12.10
2018-05-15T12:02:13.172Z,11.10
2018-05-15T12:04:23.164Z,753.70
2018-05-15T12:06:30.236Z,185.67
2018-05-15T12:08:39.392Z,34.77
2018-05-15T12:10:47.133Z,14.03
2018-05-15T12:15:06.011Z,1050.10
2018-05-15T12:17:15.114Z,39.13
2018-05-15T12:19:22.345Z,20.70
2018-05-15T12:21:29.519Z,14.10
2018-05-15T12:23:35.144Z,655.00
2018-05-15T12:25:40.413Z,47.07
2018-05-15T12:27:47.289Z,1930.40
2018-05-15T12:29:52.859Z,146.50
2018-05-15T12:31:59.123Z,27.93
2018-05-15T12:34:05.633Z,12.67
2018-05-15T12:36:12.542Z,11.70
2018-05-15T12:38:21.100Z,12.60
2018-05-15T12:40:26.598Z,11.87
2018-05-15T12:42:31.751Z,11.10
2018-05-15T12:44:36.755Z,12.10
2018-05-15T12:46:42.629Z,10.23
2018-05-15T12:48:47.773Z,10.67
2018-05-15T12:50:54.196Z,14.30
2018-05-15T12:52:59.838Z,12.10
2018-05-15T12:55:09.953Z,10.47
2018-05-15T12:57:17.878Z,10.33
2018-05-15T12:59:24.484Z,10.10
2018-05-15T13:01:30.243Z,9.80
2018-05-15T13:03:35.336Z,10.33
2018-05-15T13:05:40.894Z,12.00
2018-05-15T13:07:45.926Z,10.00
2018-05-15T13:09:50.861Z,10.47
2018-05-15T13:11:56.113Z,138.57
2018-05-15T13:14:01.125Z,728.43
2018-05-15T13:16:06.918Z,562.83
2018-05-15T13:18:15.601Z,477.10
2018-05-15T13:20:23.048Z,263.27
2018-05-15T13:22:28.139Z,494.43
2018-05-15T13:24:33.521Z,180.20
2018-05-15T13:26:39.133Z,33.30
2018-05-15T13:28:44.274Z,38.77
2018-05-15T13:30:50.120Z,14.50
2018-05-15T13:32:55.433Z,13.23
2018-05-15T13:35:01.112Z,16.37
2018-05-15T13:37:08.207Z,11.63
2018-05-15T13:39:15.509Z,11.60
2018-05-15T13:41:22.983Z,13.73
2018-05-15T13:43:34.342Z,10.43
2018-05-15T13:45:39.537Z,10.90
2018-05-15T13:47:44.627Z,15.60
2018-05-15T13:49:50.693Z,12.03
2018-05-15T13:52:00.347Z,10.10
2018-05-15T13:54:06.316Z,14.33
2018-05-15T13:56:15.831Z,13.10
2018-05-15T13:58:23.253Z,10.87
2018-05-15T14:00:29.590Z,15.93
2018-05-15T14:02:35.438Z,10.17
2018-05-15T14:04:40.512Z,9.87
2018-05-15T14:06:45.899Z,9.67
2018-05-15T14:08:51.648Z,9.10
2018-05-15T14:10:56.972Z,9.30
2018-05-15T14:13:02.431Z,9.93
2018-05-15T14:15:09.976Z,8.63
2018-05-15T14:17:17.210Z,15.30
2018-05-15T14:19:23.092Z,8.70
2018-05-15T14:21:28.813Z,9.80
2018-05-15T14:23:34.071Z,8.53
2018-05-15T14:25:39.396Z,8.40
2018-05-15T14:27:44.995Z,8.83
2018-05-15T14:29:50.221Z,8.80
2018-05-15T14:31:55.457Z,9.20
2018-05-15T14:34:01.470Z,8.47
2018-05-15T14:36:07.950Z,7.53
2018-05-15T14:38:16.242Z,8.47
2018-05-15T14:40:24.175Z,7.70
2018-05-15T14:43:44.940Z,8.70
2018-05-15T14:45:50.720Z,8.50
2018-05-15T14:47:55.839Z,7.97
2018-05-15T14:50:01.177Z,7.30
2018-05-15T14:52:07.470Z,6.50
2018-05-15T14:54:15.687Z,7.77
2018-05-15T14:56:22.681Z,7.60
2018-05-15T14:58:29.326Z,6.67
2018-05-15T15:00:34.800Z,7.00
2018-05-15T15:02:40.149Z,6.90
2018-05-15T15:04:45.793Z,6.70
2018-05-15T15:06:51.242Z,7.17
2018-05-15T15:08:56.496Z,7.23
2018-05-15T15:11:02.097Z,7.00
2018-05-15T15:13:08.497Z,6.37
2018-05-15T15:15:17.009Z,9.70
2018-05-15T15:17:23.537Z,6.23
2018-05-15T15:19:28.885Z,5.90
2018-05-15T15:21:34.159Z,6.20
2018-05-15T15:23:39.700Z,6.20
2018-05-15T15:25:45.042Z,7.63
2018-05-15T15:27:50.981Z,6.67
2018-05-15T15:29:56.920Z,6.77
2018-05-15T15:32:02.504Z,6.13
2018-05-15T15:34:09.887Z,6.73
2018-05-15T15:36:18.522Z,6.47
2018-05-15T15:38:24.113Z,6.57
2018-05-15T15:40:29.278Z,6.53
2018-05-15T15:42:35.431Z,7.30
2018-05-15T15:44:40.774Z,5.07
2018-05-15T15:46:48.285Z,5.67
2018-05-15T15:48:53.801Z,5.63
2018-05-15T15:50:59.153Z,5.60
2018-05-15T15:53:04.837Z,5.23
2018-05-15T15:55:14.170Z,23.93
2018-05-15T15:57:21.229Z,5.83
2018-05-15T15:59:26.831Z,6.23
2018-05-15T16:01:34.356Z,6.23
2018-05-15T16:03:39.907Z,6.37
2018-05-15T16:05:45.195Z,5.90
2018-05-15T16:07:51.304Z,5.57
2018-05-15T16:09:56.757Z,6.23
2018-05-15T16:12:02.160Z,6.00
2018-05-15T16:14:08.262Z,5.60
2018-05-15T16:16:16.589Z,6.43
2018-05-15T16:18:25.308Z,6.43
2018-05-15T16:20:30.989Z,6.60
2018-05-15T16:22:36.493Z,8.10
2018-05-15T16:24:41.898Z,5.27
2018-05-15T16:26:47.485Z,8.47
2018-05-15T16:28:52.869Z,6.33
2018-05-15T16:30:58.151Z,9.03
2018-05-15T16:33:04.096Z,5.10
2018-05-15T16:35:11.989Z,6.23
2018-05-15T16:37:19.512Z,10.20
2018-05-15T16:39:27.158Z,6.40
2018-05-15T16:41:32.433Z,184.10
2018-05-15T16:43:37.945Z,201.00
2018-05-15T16:45:44.326Z,307.70
2018-05-15T16:47:49.641Z,249.37
2018-05-15T16:49:55.187Z,169.93
2018-05-15T16:52:00.882Z,148.77
2018-05-15T16:54:06.743Z,134.43
2018-05-15T16:56:14.523Z,90.90
2018-05-15T16:58:22.356Z,111.83
2018-05-15T17:00:27.646Z,380.07
2018-05-15T17:02:34.919Z,387.23
2018-05-15T17:04:41.898Z,339.70
2018-05-15T17:06:47.306Z,276.97
2018-05-15T17:08:53.505Z,317.90
2018-05-15T17:10:59.634Z,213.30
2018-05-15T17:13:05.090Z,187.60
2018-05-15T17:15:13.013Z,194.13
2018-05-15T17:18:22.580Z,192.53
2018-05-15T17:20:28.166Z,180.77
2018-05-15T17:22:33.654Z,162.07
2018-05-15T17:24:38.881Z,134.83
2018-05-15T17:26:44.130Z,135.17
2018-05-15T17:28:49.661Z,80.30
2018-05-15T17:30:59.282Z,77.50
2018-05-15T17:33:04.908Z,55.57
2018-05-15T17:35:13.923Z,57.13
2018-05-15T17:37:22.143Z,67.60
2018-05-15T17:39:28.618Z,62.70
2018-05-15T17:41:34.379Z,54.60
2018-05-15T17:43:39.607Z,53.23
2018-05-15T17:45:44.770Z,47.63
2018-05-15T17:47:50.301Z,48.27
2018-05-15T17:49:55.497Z,36.73
2018-05-15T17:52:05.712Z,149.87
2018-05-15T17:54:14.887Z,550.97
2018-05-15T17:56:24.437Z,289.17
2018-05-15T17:58:29.953Z,284.77
2018-05-15T18:00:36.311Z,185.40
2018-05-15T18:02:41.872Z,142.57
2018-05-15T18:04:47.433Z,157.07
2018-05-15T18:06:54.816Z,132.83
2018-05-15T18:09:00.098Z,125.17
2018-05-15T18:11:06.110Z,103.27
2018-05-15T18:13:14.546Z,84.23
2018-05-15T18:15:21.503Z,79.10
2018-05-15T18:17:27.291Z,75.20
2018-05-15T18:19:32.901Z,61.43
2018-05-15T18:21:38.443Z,46.23
2018-05-15T18:23:43.622Z,45.63
2018-05-15T18:25:49.131Z,35.87
2018-05-15T18:27:54.599Z,28.27
2018-05-15T18:29:59.914Z,32.90
2018-05-15T18:32:05.852Z,20.87
2018-05-15T18:34:14.863Z,20.30
2018-05-15T18:36:21.389Z,20.00
2018-05-15T18:38:28.485Z,15.03
2018-05-15T18:40:33.912Z,18.87
2018-05-15T18:42:39.791Z,16.23
2018-05-15T18:44:45.531Z,14.20
2018-05-15T18:46:50.900Z,15.10
2018-05-15T18:48:56.093Z,13.60
2018-05-15T18:51:01.784Z,14.23
2018-05-15T18:53:07.983Z,11.53
2018-05-15T18:55:16.592Z,11.00
2018-05-15T18:57:24.118Z,30.77
2018-05-15T18:59:30.102Z,307.67
2018-05-15T19:01:35.849Z,456.13
2018-05-15T19:03:42.605Z,447.53
2018-05-15T19:05:48.261Z,368.63
2018-05-15T19:07:54.100Z,273.60
2018-05-15T19:09:59.766Z,230.73
2018-05-15T19:12:05.568Z,192.83
2018-05-15T19:14:15.363Z,143.00
2018-05-15T19:16:23.525Z,132.20
2018-05-15T19:18:29.924Z,116.57
2018-05-15T19:20:35.840Z,97.80
2018-05-15T19:22:42.609Z,82.50
2018-05-15T19:24:48.246Z,64.07
2018-05-15T19:26:53.603Z,65.37
2018-05-15T19:29:00.095Z,55.07
2018-05-15T19:31:07.043Z,79.53
2018-05-15T19:33:19.412Z,53.27
2018-05-15T19:35:32.395Z,292.17
2018-05-15T19:37:39.047Z,624.17
2018-05-15T19:39:44.935Z,510.40
2018-05-15T19:41:51.060Z,432.50
2018-05-15T19:43:57.546Z,265.83
2018-05-15T19:46:03.793Z,217.57
2018-05-15T19:48:10.835Z,178.47
2018-05-15T19:50:19.513Z,159.97
2018-05-15T19:52:25.585Z,142.13
2018-05-15T19:54:32.593Z,108.73
2018-05-15T19:56:39.823Z,109.43
2018-05-15T19:58:45.850Z,90.90
2018-05-15T20:00:51.776Z,163.60
2018-05-15T20:02:58.915Z,284.63
2018-05-15T20:05:04.182Z,325.87
2018-05-15T20:07:13.434Z,369.07
2018-05-15T20:09:20.132Z,297.10
2018-05-15T20:11:26.710Z,251.17
2018-05-15T20:13:33.900Z,203.47
2018-05-15T20:15:39.347Z,170.17
2018-05-15T20:17:45.495Z,160.37
2018-05-15T20:19:53.083Z,142.47
2018-05-15T20:22:00.173Z,131.10
2018-05-15T20:24:05.987Z,102.67
2018-05-15T20:26:16.016Z,132.57
2018-05-15T20:28:23.240Z,110.40
2018-05-15T20:30:28.887Z,130.23
2018-05-15T20:32:34.447Z,89.83
2018-05-15T20:34:39.781Z,86.63
2018-05-15T20:36:45.212Z,85.13
2018-05-15T20:38:50.930Z,71.30
2018-05-15T20:40:56.227Z,65.33
2018-05-15T20:43:01.442Z,65.77
2018-05-15T20:45:09.092Z,53.40
2018-05-15T20:47:17.075Z,64.00
2018-05-15T20:49:23.523Z,59.57
2018-05-15T20:51:29.209Z,52.83
2018-05-15T20:53:34.461Z,47.50
2018-05-15T20:55:40.509Z,43.33
2018-05-15T20:57:46.069Z,41.73
2018-05-15T20:59:51.382Z,41.23
2018-05-15T21:01:56.695Z,49.40
2018-05-15T21:04:03.385Z,37.47
2018-05-15T21:06:11.421Z,38.70
2018-05-15T21:08:19.027Z,30.93
2018-05-15T21:10:25.225Z,27.53
2018-05-15T21:12:30.341Z,28.47
2018-05-15T21:14:35.624Z,26.37
2018-05-15T21:16:41.611Z,26.23
2018-05-15T21:18:46.785Z,21.37
2018-05-15T21:20:52.543Z,22.90
2018-05-15T21:22:58.927Z,24.10
2018-05-15T21:25:04.251Z,22.10
2018-05-15T21:27:12.426Z,23.90
2018-05-15T21:29:19.609Z,18.17
2018-05-15T21:31:26.303Z,21.83
2018-05-15T21:33:31.530Z,16.23
2018-05-15T21:35:37.033Z,16.87
2018-05-15T21:37:42.836Z,16.20
2018-05-15T21:39:48.609Z,16.00
2018-05-15T21:41:54.549Z,13.40
2018-05-15T21:44:00.593Z,14.77
2018-05-15T21:46:05.833Z,14.70
2018-05-15T21:48:15.600Z,14.20
2018-05-15T21:50:23.638Z,13.23
2018-05-15T21:52:28.807Z,12.97
2018-05-15T21:54:34.301Z,12.97
2018-05-15T21:56:39.741Z,12.73
2018-05-15T21:58:45.026Z,12.33
2018-05-15T22:00:50.583Z,12.77
2018-05-15T22:02:55.869Z,12.83
2018-05-15T22:05:01.392Z,13.00
2018-05-15T22:07:07.898Z,12.43
2018-05-15T22:09:16.609Z,12.10
2018-05-15T22:11:21.238Z,11.10
2018-05-15T22:13:36.829Z,12.77
2018-05-15T22:15:52.945Z,10.87
2018-05-15T22:18:09.358Z,10.23
2018-05-15T22:20:26.141Z,10.60
2018-05-15T22:22:29.673Z,9.33
2018-05-15T22:24:35.282Z,9.03
2018-05-15T22:26:41.390Z,9.33
2018-05-15T22:28:46.659Z,10.03
2018-05-15T22:30:52.295Z,11.07
2018-05-15T22:32:57.856Z,9.00
2018-05-15T22:35:03.834Z,8.87
2018-05-15T22:37:12.129Z,8.13
2018-05-15T22:39:19.019Z,7.50
2018-05-15T22:41:25.596Z,8.27
2018-05-15T22:43:32.228Z,8.03
2018-05-15T22:45:37.764Z,8.37
2018-05-15T22:47:44.150Z,7.23
2018-05-15T22:49:49.827Z,9.93
2018-05-15T22:51:55.834Z,6.63
2018-05-15T22:54:01.718Z,6.40
2018-05-15T22:56:07.534Z,8.43
2018-05-15T22:58:16.453Z,6.70
2018-05-15T23:00:22.687Z,5.70
2018-05-15T23:02:28.897Z,6.87
2018-05-15T23:04:35.154Z,6.40
2018-05-15T23:06:40.745Z,6.60
2018-05-15T23:08:46.711Z,6.27
2018-05-15T23:10:52.856Z,6.20
2018-05-15T23:12:58.838Z,5.63
2018-05-15T23:15:04.815Z,6.23
2018-05-15T23:17:13.922Z,6.10
2018-05-15T23:19:20.701Z,5.97
2018-05-15T23:21:27.986Z,5.93
2018-05-15T23:23:34.081Z,5.63
2018-05-15T23:25:39.904Z,5.90
2018-05-15T23:27:45.694Z,7.83
2018-05-15T23:29:52.005Z,5.63
2018-05-15T23:31:57.978Z,7.03
2018-05-15T23:34:09.154Z,6.40
2018-05-15T23:36:18.547Z,7.50
2018-05-15T23:38:25.245Z,8.33
2018-05-15T23:40:31.370Z,6.37
2018-05-15T23:42:37.350Z,6.50
2018-05-15T23:44:42.816Z,5.70
2018-05-15T23:46:48.840Z,6.57
2018-05-15T23:48:55.011Z,5.77
2018-05-15T23:51:01.230Z,6.80
2018-05-15T23:53:06.766Z,6.47
2018-05-15T23:55:14.945Z,6.37
2018-05-15T23:57:23.185Z,8.73
2018-05-15T23:59:28.513Z,5.83
